Time;durP1;ratioP1;P1;durP2;ratioP2;P2;SDS_P1;SDS_P2;PMS_P1;PMS_P2;Temp;Humidity;BMP_temperature;BMP_pressure;BME280_temperature;BME280_humidity;BME280_pressure;Samples;Min_cycle;Max_cycle;Signal;HPM_P1;HPM_P2
2020/12/10 00:02:16;;;;;;;20.27;8.13;;;8.90;90.30;;;;;;5016094;28;20072;-51
2020/12/10 00:04:41;;;;;;;16.38;7.45;;;8.90;90.30;;;;;;5016316;28;20062;-50
2020/12/10 00:07:07;;;;;;;12.05;6.40;;;8.90;90.30;;;;;;5023354;28;20030;-51
2020/12/10 00:09:33;;;;;;;10.57;4.95;;;8.90;90.30;;;;;;5034869;28;20029;-50
2020/12/10 00:12:03;;;;;;;10.90;4.65;;;8.90;90.30;;;;;;5034671;28;20026;-51
2020/12/10 00:14:29;;;;;;;9.50;4.25;;;8.90;90.30;;;;;;5035748;28;20025;-51
2020/12/10 00:16:54;;;;;;;9.73;5.20;;;8.90;90.30;;;;;;5022173;28;20398;-51
2020/12/10 00:19:20;;;;;;;12.43;4.93;;;8.90;90.30;;;;;;5016189;28;20108;-51
2020/12/10 00:21:46;;;;;;;9.70;4.97;;;8.80;90.30;;;;;;5015586;28;20037;-51
2020/12/10 00:24:11;;;;;;;8.13;4.53;;;8.80;90.30;;;;;;5015930;28;20447;-50
2020/12/10 00:26:37;;;;;;;9.57;4.25;;;8.80;90.30;;;;;;5025701;28;20029;-51
2020/12/10 00:29:03;;;;;;;8.13;4.45;;;8.90;90.30;;;;;;5035508;28;20088;-50
2020/12/10 00:31:28;;;;;;;6.32;4.03;;;8.90;90.30;;;;;;5034299;28;20032;-51
2020/12/10 00:33:54;;;;;;;7.30;4.43;;;8.90;90.30;;;;;;5036469;28;20029;-50
2020/12/10 00:36:20;;;;;;;9.15;5.13;;;8.90;90.40;;;;;;5034537;28;20076;-51
2020/12/10 00:38:45;;;;;;;7.53;4.22;;;8.90;90.30;;;;;;5028307;28;20034;-51
2020/12/10 00:41:13;;;;;;;8.25;4.82;;;8.90;90.30;;;;;;5015038;28;20022;-51
2020/12/10 00:43:38;;;;;;;8.82;4.55;;;8.90;90.30;;;;;;5016674;28;20443;-51
2020/12/10 00:46:05;;;;;;;6.38;3.45;;;8.90;90.30;;;;;;5034912;28;20029;-51
2020/12/10 00:48:35;;;;;;;7.13;4.28;;;8.80;90.30;;;;;;5035096;28;20025;-50
2020/12/10 00:51:01;;;;;;;11.60;5.28;;;8.90;90.30;;;;;;5034324;28;20030;-51
2020/12/10 00:53:27;;;;;;;8.75;4.57;;;8.90;90.30;;;;;;5034123;28;20037;-51
2020/12/10 00:55:57;;;;;;;9.38;3.80;;;8.90;90.30;;;;;;5015206;28;20026;-51
2020/12/10 00:58:25;;;;;;;7.22;3.65;;;8.90;90.30;;;;;;5015337;28;20112;-51
2020/12/10 01:00:52;;;;;;;12.20;4.78;;;8.90;90.40;;;;;;5028160;28;20107;-50
2020/12/10 01:03:18;;;;;;;5.47;3.97;;;8.90;90.40;;;;;;5038065;28;20056;-51
2020/12/10 01:05:44;;;;;;;7.95;4.53;;;8.90;90.30;;;;;;5033950;28;20026;-50
2020/12/10 01:08:10;;;;;;;13.55;4.78;;;8.80;90.30;;;;;;5018899;28;20034;-50
2020/12/10 01:10:35;;;;;;;9.13;5.40;;;8.90;90.40;;;;;;5030458;28;20148;-51
2020/12/10 01:13:01;;;;;;;10.98;4.70;;;8.90;90.40;;;;;;5028848;28;20477;-50
2020/12/10 01:15:27;;;;;;;6.43;4.28;;;8.90;90.40;;;;;;5017756;28;20455;-51
2020/12/10 01:17:53;;;;;;;8.20;4.65;;;8.90;90.40;;;;;;5015264;28;20076;-51
2020/12/10 01:20:19;;;;;;;8.02;4.40;;;8.90;90.40;;;;;;5015367;28;20021;-51
2020/12/10 01:22:44;;;;;;;7.22;4.90;;;8.90;90.40;;;;;;5021348;28;20073;-51
2020/12/10 01:25:10;;;;;;;11.18;4.75;;;8.90;90.40;;;;;;5033973;28;20436;-51
2020/12/10 01:27:36;;;;;;;17.15;5.03;;;8.90;90.40;;;;;;5034103;28;20103;-51
2020/12/10 01:30:06;;;;;;;6.60;3.78;;;8.90;90.40;;;;;;5034425;28;20421;-50
2020/12/10 01:32:32;;;;;;;9.77;4.90;;;8.90;90.40;;;;;;5034569;28;20057;-51
2020/12/10 01:34:57;;;;;;;10.43;4.80;;;8.90;90.40;;;;;;5022558;28;20060;-51
2020/12/10 01:37:23;;;;;;;9.80;5.15;;;8.90;90.40;;;;;;5014569;28;20088;-51
2020/12/10 01:39:49;;;;;;;13.18;5.07;;;8.90;90.40;;;;;;5015005;28;20018;-51
2020/12/10 01:42:15;;;;;;;10.40;4.65;;;8.90;90.40;;;;;;5014292;28;20041;-51
2020/12/10 01:44:41;;;;;;;8.70;4.60;;;8.90;90.40;;;;;;5022183;28;20040;-51
2020/12/10 01:47:07;;;;;;;8.32;4.43;;;8.90;90.40;;;;;;5014627;28;20363;-51
2020/12/10 01:49:35;;;;;;;8.32;4.22;;;8.90;90.40;;;;;;5014927;28;20320;-50
2020/12/10 01:52:02;;;;;;;8.52;4.50;;;8.90;90.40;;;;;;5014601;28;20375;-51
2020/12/10 01:54:27;;;;;;;7.57;4.35;;;8.90;90.40;;;;;;5025680;28;20087;-51
2020/12/10 01:56:54;;;;;;;9.95;4.18;;;8.90;90.40;;;;;;5037702;28;20117;-51
2020/12/10 01:59:20;;;;;;;12.88;4.45;;;8.90;90.40;;;;;;5033751;28;20367;-51
2020/12/10 02:01:46;;;;;;;7.70;4.20;;;8.80;90.40;;;;;;5037670;28;20026;-51
2020/12/10 02:04:44;;;;;;;9.35;4.72;;;8.90;90.50;;;;;;5033201;28;20033;-51
2020/12/10 02:07:10;;;;;;;6.63;4.47;;;8.90;90.40;;;;;;5017331;28;20041;-51
2020/12/10 02:09:35;;;;;;;8.63;4.47;;;8.90;90.40;;;;;;5018438;28;20030;-51
2020/12/10 02:12:01;;;;;;;9.40;4.25;;;8.90;90.40;;;;;;5018153;28;20466;-50
2020/12/10 02:14:37;;;;;;;9.45;5.18;;;8.90;90.40;;;;;;5018311;28;20026;-51
2020/12/10 02:17:06;;;;;;;9.48;4.63;;;8.90;90.50;;;;;;5023852;28;20026;-50
2020/12/10 02:19:32;;;;;;;6.65;3.67;;;8.80;90.40;;;;;;5020414;28;20033;-51
2020/12/10 02:21:58;;;;;;;9.38;4.50;;;8.90;90.50;;;;;;5036487;28;20080;-50
2020/12/10 02:24:24;;;;;;;9.68;4.90;;;8.90;90.50;;;;;;5018568;28;20418;-50
2020/12/10 02:26:50;;;;;;;7.93;4.20;;;8.90;90.50;;;;;;5018204;28;20033;-50
2020/12/10 02:29:19;;;;;;;8.10;4.10;;;8.90;90.50;;;;;;5032870;28;20025;-50
2020/12/10 02:31:46;;;;;;;8.05;4.10;;;8.90;90.40;;;;;;5037530;28;20037;-50
2020/12/10 02:34:12;;;;;;;10.02;4.60;;;8.90;90.40;;;;;;5033248;28;20056;-50
2020/12/10 02:36:38;;;;;;;6.55;4.13;;;8.90;90.40;;;;;;5036176;28;20041;-50
2020/12/10 02:39:06;;;;;;;10.00;4.20;;;8.90;90.40;;;;;;5023919;28;20451;-51
2020/12/10 02:41:31;;;;;;;12.15;5.82;;;8.90;90.40;;;;;;5019861;28;20030;-50
2020/12/10 02:43:57;;;;;;;13.35;6.25;;;8.90;90.50;;;;;;5036902;28;20029;-50
2020/12/10 02:46:23;;;;;;;14.20;6.22;;;8.90;90.40;;;;;;5037252;28;20026;-50
2020/12/10 02:48:49;;;;;;;17.67;6.82;;;8.90;90.50;;;;;;5025855;28;20034;-50
2020/12/10 02:51:15;;;;;;;12.60;6.78;;;8.90;90.50;;;;;;5031683;28;20022;-50
2020/12/10 02:53:41;;;;;;;9.88;5.03;;;8.90;90.50;;;;;;5037211;28;20114;-50
2020/12/10 02:56:08;;;;;;;12.60;5.28;;;8.90;90.50;;;;;;5035120;28;20054;-50
2020/12/10 02:58:34;;;;;;;12.27;5.80;;;8.90;90.50;;;;;;5026198;28;20045;-50
2020/12/10 03:01:00;;;;;;;13.38;6.30;;;8.90;90.50;;;;;;5036818;28;20025;-50
2020/12/10 03:03:25;;;;;;;11.30;5.22;;;8.90;90.50;;;;;;5034707;28;20026;-50
2020/12/10 03:05:51;;;;;;;9.48;5.70;;;8.90;90.50;;;;;;5017517;28;20029;-50
2020/12/10 03:08:17;;;;;;;9.85;4.75;;;8.90;90.50;;;;;;5026740;28;20065;-50
2020/12/10 03:10:42;;;;;;;11.88;5.53;;;8.90;90.60;;;;;;5017167;28;20030;-50
2020/12/10 03:13:08;;;;;;;6.95;4.55;;;8.90;90.50;;;;;;5017112;28;20037;-50
2020/12/10 03:15:34;;;;;;;10.63;5.15;;;8.90;90.50;;;;;;5016850;28;20026;-50
2020/12/10 03:17:59;;;;;;;8.60;5.10;;;8.90;90.50;;;;;;5028115;28;20060;-51
2020/12/10 03:20:25;;;;;;;8.82;5.05;;;8.90;90.50;;;;;;5024268;28;20030;-51
2020/12/10 03:22:51;;;;;;;11.60;5.82;;;8.90;90.50;;;;;;5036740;28;20075;-50
2020/12/10 03:25:17;;;;;;;11.25;5.28;;;8.90;90.50;;;;;;5036809;28;20021;-50
2020/12/10 03:27:43;;;;;;;9.35;4.72;;;8.90;90.50;;;;;;5027275;28;20080;-50
2020/12/10 03:30:08;;;;;;;17.55;7.57;;;8.90;90.60;;;;;;5036576;28;20474;-51
2020/12/10 03:32:34;;;;;;;11.25;5.80;;;8.90;90.50;;;;;;5024792;28;20029;-50
2020/12/10 03:35:01;;;;;;;14.50;6.95;;;8.90;90.50;;;;;;5016725;28;20033;-51
2020/12/10 03:37:28;;;;;;;20.15;8.63;;;8.90;90.50;;;;;;5022896;28;20109;-50
2020/12/10 03:39:54;;;;;;;19.00;8.52;;;8.90;90.60;;;;;;5017397;28;20405;-51
2020/12/10 03:42:19;;;;;;;21.98;7.93;;;8.90;90.50;;;;;;5016308;28;20052;-51
2020/12/10 03:44:45;;;;;;;26.38;10.00;;;8.90;90.60;;;;;;5016591;28;20109;-50
2020/12/10 03:47:11;;;;;;;23.42;10.02;;;8.90;90.60;;;;;;5016701;28;20116;-51
2020/12/10 03:49:36;;;;;;;24.15;10.50;;;8.90;90.60;;;;;;5032175;28;20092;-50
2020/12/10 03:52:03;;;;;;;26.75;10.27;;;8.90;90.60;;;;;;5035954;28;20030;-51
2020/12/10 03:54:28;;;;;;;25.58;10.95;;;8.90;90.60;;;;;;5035905;28;20028;-51
2020/12/10 03:56:54;;;;;;;25.02;10.18;;;8.90;90.60;;;;;;5035704;28;20128;-50
2020/12/10 03:59:19;;;;;;;34.55;11.68;;;8.90;90.60;;;;;;5027906;28;20025;-51
2020/12/10 04:01:45;;;;;;;26.88;11.13;;;8.90;90.60;;;;;;5035560;28;20026;-51
2020/12/10 04:04:11;;;;;;;25.48;9.70;;;8.90;90.60;;;;;;5035990;28;20108;-51
2020/12/10 04:06:42;;;;;;;31.88;10.88;;;8.90;90.60;;;;;;5031835;28;20418;-50
2020/12/10 04:09:09;;;;;;;27.65;11.63;;;8.90;90.60;;;;;;5016540;28;20029;-51
2020/12/10 04:11:34;;;;;;;28.50;10.40;;;8.90;90.60;;;;;;5025097;28;20029;-51
2020/12/10 04:14:00;;;;;;;25.05;11.13;;;8.90;90.60;;;;;;5032491;28;20033;-50
2020/12/10 04:16:25;;;;;;;25.27;10.70;;;8.90;90.60;;;;;;5015707;28;20431;-50
2020/12/10 04:18:51;;;;;;;36.20;11.90;;;8.90;90.70;;;;;;5027728;28;20048;-51
2020/12/10 04:21:16;;;;;;;33.00;12.07;;;8.90;90.50;;;;;;5035163;28;20033;-51
2020/12/10 04:23:42;;;;;;;34.83;11.30;;;8.90;90.50;;;;;;5035628;28;20045;-51
2020/12/10 04:26:08;;;;;;;30.75;12.50;;;8.90;90.60;;;;;;5031133;28;20170;-51
2020/12/10 04:28:34;;;;;;;32.33;12.82;;;8.90;90.70;;;;;;5016366;28;20045;-50
2020/12/10 04:30:59;;;;;;;34.08;12.32;;;8.90;90.60;;;;;;5015398;28;20029;-50
2020/12/10 04:33:25;;;;;;;34.13;12.35;;;8.90;90.60;;;;;;5019623;28;20030;-50
2020/12/10 04:35:51;;;;;;;37.13;12.07;;;8.90;90.70;;;;;;5033729;28;20067;-50
2020/12/10 04:38:17;;;;;;;35.92;13.82;;;8.90;90.60;;;;;;5029972;28;20095;-51
2020/12/10 04:40:43;;;;;;;32.03;11.90;;;8.90;91.00;;;;;;5014933;28;20104;-51
2020/12/10 04:43:10;;;;;;;39.80;12.15;;;8.90;90.70;;;;;;5015640;28;20022;-51
2020/12/10 04:45:35;;;;;;;32.08;11.60;;;8.90;90.60;;;;;;5017046;28;20036;-51
2020/12/10 04:48:02;;;;;;;33.33;11.00;;;8.90;90.60;;;;;;5032033;28;20057;-51
2020/12/10 04:50:30;;;;;;;32.15;13.05;;;8.90;90.60;;;;;;5014956;28;20042;-50
2020/12/10 04:52:57;;;;;;;33.50;11.85;;;8.90;90.60;;;;;;5015149;28;20474;-51
2020/12/10 04:55:23;;;;;;;36.33;12.43;;;8.90;90.60;;;;;;5029355;28;20029;-51
2020/12/10 04:57:52;;;;;;;34.83;11.93;;;8.90;90.70;;;;;;5015641;28;20041;-51
2020/12/10 05:00:18;;;;;;;33.45;13.18;;;8.90;90.70;;;;;;5034721;28;20025;-51
2020/12/10 05:02:47;;;;;;;33.30;12.50;;;8.90;90.60;;;;;;5034651;28;20021;-51
2020/12/10 05:05:31;;;;;;;38.35;12.40;;;8.90;90.70;;;;;;5035033;28;20100;-51
2020/12/10 05:07:59;;;;;;;42.40;13.20;;;8.90;90.70;;;;;;5028223;28;20036;-51
2020/12/10 05:10:25;;;;;;;31.30;11.02;;;8.90;90.60;;;;;;5034629;28;20029;-51
2020/12/10 05:13:00;;;;;;;43.60;12.40;;;8.90;90.70;;;;;;5034503;28;20044;-51
2020/12/10 05:15:33;;;;;;;43.13;12.77;;;8.90;90.70;;;;;;5033767;28;20025;-51
2020/12/10 05:18:12;;;;;;;37.75;11.45;;;8.90;90.60;;;;;;5025610;28;20034;-51
2020/12/10 05:20:57;;;;;;;36.38;12.63;;;8.90;90.70;;;;;;5014690;28;20026;-51
2020/12/10 05:23:37;;;;;;;32.58;11.05;;;8.90;90.70;;;;;;5015576;28;20061;-51
2020/12/10 05:26:04;;;;;;;38.40;12.45;;;8.90;90.70;;;;;;5015073;28;20037;-51
2020/12/10 05:28:46;;;;;;;31.58;11.63;;;8.90;90.70;;;;;;5026804;28;20048;-51
2020/12/10 05:31:15;;;;;;;30.23;10.60;;;8.90;90.60;;;;;;5033524;28;20519;-51
2020/12/10 05:33:55;;;;;;;34.23;11.13;;;8.90;90.60;;;;;;5030249;28;20040;-51
2020/12/10 05:36:22;;;;;;;40.83;11.95;;;8.90;90.70;;;;;;5032819;28;20041;-51
2020/12/10 05:39:00;;;;;;;29.50;10.77;;;8.90;90.70;;;;;;5018594;28;20034;-51
2020/12/10 05:41:26;;;;;;;31.25;11.20;;;8.90;90.70;;;;;;5024599;28;20053;-51
2020/12/10 05:43:52;;;;;;;36.10;11.82;;;8.90;90.60;;;;;;5014485;28;20030;-52
2020/12/10 05:46:20;;;;;;;36.33;12.32;;;8.90;90.70;;;;;;5015171;28;20076;-51
2020/12/10 05:48:47;;;;;;;29.58;10.95;;;8.90;90.70;;;;;;5022360;28;20030;-51
2020/12/10 05:51:18;;;;;;;39.33;11.20;;;8.90;90.60;;;;;;5016840;28;20032;-51
2020/12/10 05:53:44;;;;;;;32.10;11.40;;;8.90;90.70;;;;;;5014304;28;20345;-51
2020/12/10 05:56:11;;;;;;;32.83;11.30;;;8.90;90.60;;;;;;5023086;28;20041;-51
2020/12/10 05:58:50;;;;;;;39.40;11.23;;;8.90;90.70;;;;;;5033445;28;20133;-52
2020/12/10 06:01:34;;;;;;;29.17;11.43;;;8.90;90.70;;;;;;5025032;28;20017;-51
2020/12/10 06:04:01;;;;;;;26.55;10.85;;;8.90;90.60;;;;;;5029442;28;20028;-51
2020/12/10 06:06:29;;;;;;;29.27;9.95;;;8.90;90.70;;;;;;5032463;28;20025;-51
2020/12/10 06:09:02;;;;;;;31.58;10.57;;;8.90;90.60;;;;;;5029807;28;20341;-51
2020/12/10 06:11:28;;;;;;;34.85;11.55;;;8.90;90.70;;;;;;5027593;28;20065;-51
2020/12/10 06:14:05;;;;;;;32.72;11.20;;;8.90;90.70;;;;;;5021105;28;20045;-51
2020/12/10 06:16:32;;;;;;;34.70;11.45;;;8.90;90.70;;;;;;5033332;28;20109;-51
2020/12/10 06:19:03;;;;;;;35.28;11.13;;;8.90;90.70;;;;;;5033698;28;20387;-51
2020/12/10 06:21:46;;;;;;;29.90;9.70;;;8.90;90.70;;;;;;5033317;28;20466;-51
2020/12/10 06:24:26;;;;;;;33.70;11.50;;;8.90;90.60;;;;;;5021678;28;20048;-51
2020/12/10 06:26:53;;;;;;;34.20;11.80;;;8.90;90.70;;;;;;5022721;28;20029;-51
2020/12/10 06:29:33;;;;;;;38.42;10.88;;;8.90;90.70;;;;;;5019324;28;20030;-51
2020/12/10 06:32:05;;;;;;;38.13;10.50;;;8.90;90.70;;;;;;5021648;28;20040;-51
2020/12/10 06:34:36;;;;;;;37.40;10.95;;;8.90;90.60;;;;;;5021663;28;20025;-51
2020/12/10 06:37:18;;;;;;;36.90;11.45;;;8.90;90.70;;;;;;5023695;28;20127;-51
2020/12/10 06:39:44;;;;;;;31.23;11.70;;;8.90;90.70;;;;;;5028015;28;20017;-51
2020/12/10 06:42:10;;;;;;;35.95;10.85;;;8.90;90.60;;;;;;5031171;28;20052;-51
2020/12/10 06:44:37;;;;;;;30.83;11.07;;;9.00;90.70;;;;;;5032223;28;20443;-51
2020/12/10 06:47:03;;;;;;;35.00;10.77;;;9.00;90.80;;;;;;5022349;28;20033;-53
2020/12/10 06:49:31;;;;;;;37.60;11.55;;;8.90;90.90;;;;;;5035742;28;20060;-53
2020/12/10 06:52:09;;;;;;;35.67;10.82;;;8.90;90.70;;;;;;5017673;28;20104;-53
2020/12/10 06:54:34;;;;;;;32.45;12.10;;;8.80;90.40;;;;;;5027486;28;20049;-52
2020/12/10 06:57:05;;;;;;;35.88;11.35;;;8.90;90.40;;;;;;5030300;28;20038;-52
2020/12/10 06:59:39;;;;;;;34.00;10.68;;;8.90;90.40;;;;;;5029378;28;20112;-52
2020/12/10 07:02:19;;;;;;;25.92;10.18;;;8.80;90.30;;;;;;5026443;28;20067;-53
2020/12/10 07:04:49;;;;;;;28.10;10.75;;;8.90;90.30;;;;;;5027131;28;20026;-53
2020/12/10 07:07:19;;;;;;;27.40;8.98;;;8.90;90.20;;;;;;5025571;28;20045;-53
2020/12/10 07:09:52;;;;;;;28.00;10.55;;;8.80;90.20;;;;;;5024786;28;20018;-52
2020/12/10 07:12:32;;;;;;;27.23;10.88;;;8.80;90.20;;;;;;5022232;28;20429;-52
2020/12/10 07:15:13;;;;;;;31.25;11.35;;;8.80;90.10;;;;;;5026706;28;20026;-53
2020/12/10 07:17:39;;;;;;;27.55;9.70;;;8.80;90.10;;;;;;5028736;28;20104;-53
2020/12/10 07:20:05;;;;;;;31.02;9.50;;;8.90;90.20;;;;;;5023548;28;20026;-53
2020/12/10 07:22:31;;;;;;;27.63;9.02;;;8.80;90.10;;;;;;5024103;28;20442;-52
2020/12/10 07:24:56;;;;;;;32.28;8.88;;;8.80;90.10;;;;;;5025209;28;20037;-52
2020/12/10 07:27:25;;;;;;;32.42;10.50;;;8.80;90.00;;;;;;5032653;28;20044;-52
2020/12/10 07:29:51;;;;;;;25.50;8.95;;;8.90;90.00;;;;;;5025539;28;20037;-53
2020/12/10 07:32:17;;;;;;;28.20;9.05;;;8.80;90.10;;;;;;5026028;28;20044;-52
2020/12/10 07:34:44;;;;;;;36.75;10.00;;;8.80;90.00;;;;;;5032954;28;20021;-53
2020/12/10 07:37:15;;;;;;;27.02;9.88;;;8.80;89.90;;;;;;5024678;28;20033;-53
2020/12/10 07:39:41;;;;;;;37.22;10.15;;;8.80;90.00;;;;;;5025738;28;20367;-53
2020/12/10 07:42:07;;;;;;;33.33;10.60;;;8.80;90.00;;;;;;5025483;28;20026;-52
2020/12/10 07:44:34;;;;;;;35.45;10.70;;;8.90;90.00;;;;;;5021802;28;20030;-52
2020/12/10 07:47:02;;;;;;;38.88;11.27;;;8.80;89.80;;;;;;5023528;28;20352;-52
2020/12/10 07:49:32;;;;;;;37.60;12.07;;;8.80;90.00;;;;;;5024365;28;20091;-53
2020/12/10 07:52:11;;;;;;;39.53;12.05;;;8.80;89.70;;;;;;5025423;28;20025;-53
2020/12/10 07:55:05;;;;;;;29.27;10.27;;;8.80;89.80;;;;;;5026459;28;20041;-53
2020/12/10 07:57:41;;;;;;;34.50;10.90;;;8.80;89.80;;;;;;5023576;28;20467;-53
2020/12/10 08:00:09;;;;;;;42.53;12.25;;;8.80;89.60;;;;;;5025119;28;20049;-52
2020/12/10 08:02:45;;;;;;;33.88;11.95;;;8.80;89.80;;;;;;5022354;28;20017;-53
2020/12/10 08:05:13;;;;;;;29.83;10.18;;;8.80;89.60;;;;;;5022709;28;20040;-53
2020/12/10 08:07:44;;;;;;;30.63;10.10;;;8.80;89.50;;;;;;5024444;28;20058;-53
2020/12/10 08:10:18;;;;;;;;;;;8.80;89.40;;;;;;5022002;28;20034;-52
2020/12/10 08:12:44;;;;;;;36.65;10.40;;;8.80;89.60;;;;;;5020211;28;19956;-53
2020/12/10 08:15:20;;;;;;;27.73;7.85;;;8.80;89.50;;;;;;5022069;28;20037;-52
2020/12/10 08:17:46;;;;;;;22.88;8.00;;;8.80;89.40;;;;;;5024786;28;20039;-52
2020/12/10 08:20:11;;;;;;;26.40;7.95;;;8.80;89.50;;;;;;5021034;28;20109;-52
2020/12/10 08:22:37;;;;;;;25.58;7.80;;;8.80;89.50;;;;;;5021024;28;20026;-53
2020/12/10 08:25:13;;;;;;;21.10;6.85;;;8.80;89.30;;;;;;5018981;28;20034;-53
2020/12/10 08:27:39;;;;;;;22.33;8.45;;;8.80;89.40;;;;;;5028492;28;20513;-52
2020/12/10 08:30:10;;;;;;;29.27;8.98;;;8.80;89.20;;;;;;5029067;28;20041;-52
2020/12/10 08:32:52;;;;;;;22.35;7.47;;;8.80;89.20;;;;;;5026743;28;20332;-52
2020/12/10 08:35:18;;;;;;;24.63;8.15;;;8.80;89.20;;;;;;5021265;28;20034;-52
2020/12/10 08:37:43;;;;;;;26.30;8.63;;;8.80;89.30;;;;;;5021113;28;20083;-53
2020/12/10 08:40:10;;;;;;;19.95;8.13;;;8.80;89.10;;;;;;5024452;28;20045;-53
2020/12/10 08:42:36;;;;;;;28.80;8.60;;;8.80;89.10;;;;;;5022173;28;20026;-53
2020/12/10 08:45:03;;;;;;;30.35;9.07;;;8.80;89.10;;;;;;5026241;28;20025;-53
2020/12/10 08:47:31;;;;;;;17.58;7.32;;;8.80;89.10;;;;;;5030934;28;20075;-53
2020/12/10 08:50:29;;;;;;;22.30;7.70;;;8.80;89.20;;;;;;5034050;28;20048;-53
2020/12/10 08:52:58;;;;;;;19.45;7.40;;;8.80;89.10;;;;;;5020688;28;20063;-53
2020/12/10 08:55:24;;;;;;;25.83;9.57;;;8.80;89.00;;;;;;5023965;28;20128;-53
2020/12/10 08:57:50;;;;;;;24.52;8.57;;;8.80;89.00;;;;;;5026698;28;20459;-53
2020/12/10 09:00:16;;;;;;;23.75;8.32;;;8.80;88.90;;;;;;5029813;28;20104;-53
2020/12/10 09:02:41;;;;;;;22.65;8.85;;;8.80;89.10;;;;;;5016750;28;20570;-53
2020/12/10 09:05:07;;;;;;;28.92;10.02;;;8.80;88.90;;;;;;5023169;28;20042;-53
2020/12/10 09:07:33;;;;;;;21.25;8.13;;;8.80;88.70;;;;;;5020182;28;20469;-53
2020/12/10 09:10:02;;;;;;;23.52;9.05;;;8.80;89.10;;;;;;5030655;28;20036;-52
2020/12/10 09:12:27;;;;;;;31.42;9.10;;;8.80;88.80;;;;;;5026994;28;20060;-53
2020/12/10 09:14:53;;;;;;;17.50;8.48;;;8.80;88.70;;;;;;5027783;28;20404;-53
2020/12/10 09:17:18;;;;;;;23.25;8.35;;;8.80;88.70;;;;;;5018110;28;20121;-53
2020/12/10 09:19:44;;;;;;;24.30;8.60;;;8.80;88.90;;;;;;5026889;28;20021;-53
2020/12/10 09:22:11;;;;;;;26.35;8.95;;;8.80;88.90;;;;;;5025154;28;20025;-53
2020/12/10 09:24:36;;;;;;;28.33;10.30;;;8.80;88.90;;;;;;5027266;28;20025;-53
2020/12/10 09:27:06;;;;;;;22.73;8.90;;;8.80;88.90;;;;;;5020627;28;20026;-53
2020/12/10 09:29:33;;;;;;;24.85;9.50;;;8.80;88.90;;;;;;5025298;28;20041;-53
2020/12/10 09:32:00;;;;;;;20.65;8.98;;;8.80;88.80;;;;;;5033994;28;20034;-53
2020/12/10 09:34:26;;;;;;;23.67;8.80;;;8.80;88.70;;;;;;5018150;28;20463;-53
2020/12/10 09:36:51;;;;;;;24.73;9.18;;;8.80;88.70;;;;;;5019272;28;20025;-53
2020/12/10 09:39:17;;;;;;;25.83;9.60;;;8.90;88.70;;;;;;5024820;28;20036;-53
2020/12/10 09:41:43;;;;;;;21.23;9.30;;;8.80;88.70;;;;;;5026904;28;20032;-53
2020/12/10 09:44:10;;;;;;;24.48;10.05;;;8.80;88.70;;;;;;5018794;28;20033;-53
2020/12/10 09:46:35;;;;;;;21.95;9.23;;;8.90;88.80;;;;;;5032592;28;20153;-53
2020/12/10 09:49:02;;;;;;;26.73;9.20;;;8.80;88.50;;;;;;5034784;28;20129;-54
2020/12/10 09:51:34;;;;;;;29.48;9.95;;;8.80;88.60;;;;;;5022115;28;20177;-53
2020/12/10 09:54:06;;;;;;;24.17;9.55;;;8.80;88.80;;;;;;5032149;28;20340;-53
2020/12/10 09:56:41;;;;;;;27.25;9.93;;;8.80;88.50;;;;;;5027371;28;20037;-53
2020/12/10 09:59:07;;;;;;;23.90;8.90;;;8.90;88.60;;;;;;5021140;28;20063;-53
2020/12/10 10:01:32;;;;;;;26.75;10.23;;;8.80;89.20;;;;;;5033668;28;20148;-53
2020/12/10 10:03:58;;;;;;;24.42;11.00;;;8.90;88.70;;;;;;5022788;28;20435;-53
2020/12/10 10:06:23;;;;;;;21.52;8.60;;;8.80;88.40;;;;;;5030329;28;20022;-53
2020/12/10 10:08:49;;;;;;;25.83;9.45;;;8.80;88.50;;;;;;5019556;28;20473;-53
2020/12/10 10:11:15;;;;;;;23.83;8.65;;;8.80;88.50;;;;;;5021866;28;20040;-52
2020/12/10 10:13:41;;;;;;;21.50;8.82;;;8.80;88.40;;;;;;5035631;28;20037;-53
2020/12/10 10:16:06;;;;;;;27.35;9.70;;;8.90;88.50;;;;;;5022331;28;20448;-53
2020/12/10 10:18:32;;;;;;;25.17;8.65;;;8.90;88.60;;;;;;5019759;28;20036;-53
2020/12/10 10:20:58;;;;;;;20.90;8.82;;;8.80;88.60;;;;;;5022519;28;20026;-54
2020/12/10 10:23:24;;;;;;;30.00;9.30;;;8.80;88.50;;;;;;5028919;28;20490;-53
2020/12/10 10:25:50;;;;;;;23.15;9.23;;;8.80;88.40;;;;;;5020740;28;20038;-52
2020/12/10 10:28:16;;;;;;;23.05;9.60;;;8.80;88.30;;;;;;5021619;28;20025;-52
2020/12/10 10:30:42;;;;;;;32.30;9.38;;;8.80;88.30;;;;;;5033081;28;20026;-53
2020/12/10 10:33:08;;;;;;;31.15;9.93;;;8.80;88.40;;;;;;5024519;28;20080;-52
2020/12/10 10:35:33;;;;;;;27.75;9.13;;;8.80;88.70;;;;;;5027530;28;20022;-52
2020/12/10 10:37:59;;;;;;;24.63;8.65;;;8.90;88.60;;;;;;5030805;28;20121;-52
2020/12/10 10:40:25;;;;;;;27.67;9.75;;;8.80;88.30;;;;;;5019727;28;20018;-53
2020/12/10 10:42:51;;;;;;;31.38;11.20;;;8.80;88.40;;;;;;5017909;28;20032;-53
2020/12/10 10:45:16;;;;;;;31.15;11.05;;;8.90;88.50;;;;;;5021427;28;20473;-53
2020/12/10 10:47:42;;;;;;;28.08;9.13;;;8.80;88.20;;;;;;5029166;28;20033;-52
2020/12/10 10:50:08;;;;;;;23.52;8.63;;;8.80;88.50;;;;;;5034388;28;20104;-53
2020/12/10 10:52:33;;;;;;;27.27;9.63;;;8.80;88.40;;;;;;5020653;28;20037;-53
2020/12/10 10:54:59;;;;;;;30.75;10.43;;;8.90;88.40;;;;;;5031543;28;20025;-53
2020/12/10 10:57:25;;;;;;;29.80;9.43;;;8.90;88.50;;;;;;5026284;28;20508;-53
2020/12/10 10:59:50;;;;;;;27.15;8.52;;;8.90;88.30;;;;;;5035020;28;20695;-52
2020/12/10 11:02:16;;;;;;;24.70;9.20;;;8.90;88.30;;;;;;5020360;28;20026;-52
2020/12/10 11:04:42;;;;;;;24.67;9.48;;;8.90;88.30;;;;;;5027274;28;20482;-53
2020/12/10 11:07:08;;;;;;;25.00;9.00;;;8.90;88.20;;;;;;5036294;28;20362;-53
2020/12/10 11:09:33;;;;;;;25.67;9.52;;;8.90;88.50;;;;;;5029023;28;20109;-53
2020/12/10 11:11:59;;;;;;;21.33;9.13;;;8.90;88.20;;;;;;5026117;28;20022;-53
2020/12/10 11:14:24;;;;;;;25.55;10.10;;;8.90;88.20;;;;;;5025733;28;20358;-53
2020/12/10 11:16:56;;;;;;;20.73;8.52;;;8.90;88.30;;;;;;5029418;28;20025;-53
2020/12/10 11:19:22;;;;;;;31.85;9.85;;;8.90;88.30;;;;;;5025052;28;20037;-53
2020/12/10 11:21:48;;;;;;;30.92;8.90;;;8.90;88.30;;;;;;5021193;28;20025;-53
2020/12/10 11:24:14;;;;;;;23.27;8.75;;;8.90;88.00;;;;;;5024076;28;20029;-53
2020/12/10 11:26:39;;;;;;;20.70;7.97;;;8.90;88.30;;;;;;5032907;28;20034;-53
2020/12/10 11:29:05;;;;;;;27.38;9.85;;;8.90;88.20;;;;;;5017492;28;20022;-53
2020/12/10 11:31:30;;;;;;;22.17;8.50;;;8.90;88.20;;;;;;5023855;28;20030;-53
2020/12/10 11:33:56;;;;;;;28.95;8.95;;;8.90;88.40;;;;;;5022366;28;20037;-53
2020/12/10 11:36:22;;;;;;;22.20;8.80;;;8.90;88.00;;;;;;5017200;28;20033;-53
2020/12/10 11:38:47;;;;;;;23.05;9.18;;;8.90;88.20;;;;;;5033928;28;20037;-53
2020/12/10 11:41:17;;;;;;;23.55;8.93;;;8.90;88.20;;;;;;5019425;28;20030;-53
2020/12/10 11:43:43;;;;;;;26.33;10.13;;;8.90;87.90;;;;;;5017480;28;20061;-53
2020/12/10 11:46:09;;;;;;;25.20;9.50;;;8.90;88.00;;;;;;5033934;28;20068;-53
2020/12/10 11:48:35;;;;;;;24.90;8.30;;;8.90;88.30;;;;;;5033158;28;20037;-53
2020/12/10 11:51:00;;;;;;;22.60;9.02;;;8.90;88.00;;;;;;5021697;28;20023;-53
2020/12/10 11:53:32;;;;;;;29.92;9.45;;;8.90;88.20;;;;;;5026772;28;20045;-53
2020/12/10 11:55:58;;;;;;;25.17;9.88;;;8.90;88.10;;;;;;5017042;28;20030;-52
2020/12/10 11:58:24;;;;;;;28.02;9.63;;;8.90;87.90;;;;;;5032423;28;20358;-53
2020/12/10 12:00:49;;;;;;;31.83;9.48;;;8.90;88.10;;;;;;5017546;28;20036;-53
2020/12/10 12:03:15;;;;;;;30.17;9.57;;;8.90;88.00;;;;;;5025076;28;20731;-52
2020/12/10 12:05:41;;;;;;;26.77;10.10;;;8.90;88.20;;;;;;5026498;28;20356;-53
2020/12/10 12:08:06;;;;;;;26.17;9.13;;;8.90;88.20;;;;;;5017161;28;20084;-53
2020/12/10 12:10:32;;;;;;;26.00;9.63;;;8.90;88.10;;;;;;5031793;28;20112;-53
2020/12/10 12:12:58;;;;;;;26.40;9.43;;;8.90;87.90;;;;;;5015869;28;20360;-52
2020/12/10 12:15:23;;;;;;;29.67;9.45;;;8.90;88.00;;;;;;5027425;28;20037;-52
2020/12/10 12:17:49;;;;;;;32.85;10.85;;;8.90;88.10;;;;;;5026499;28;20037;-53
2020/12/10 12:20:15;;;;;;;31.77;10.75;;;8.90;88.10;;;;;;5032441;28;20465;-53
2020/12/10 12:22:40;;;;;;;29.05;9.75;;;8.90;87.90;;;;;;5029451;28;20152;-53
2020/12/10 12:25:07;;;;;;;28.50;9.07;;;8.90;88.10;;;;;;5025055;28;20500;-52
2020/12/10 12:27:33;;;;;;;24.05;8.73;;;8.90;88.00;;;;;;5026134;28;20342;-52
2020/12/10 12:29:59;;;;;;;22.75;8.95;;;8.90;88.20;;;;;;5023692;28;20022;-53
2020/12/10 12:32:24;;;;;;;23.55;9.20;;;9.00;88.10;;;;;;5023069;28;20100;-52
2020/12/10 12:34:50;;;;;;;24.95;9.20;;;8.90;88.10;;;;;;5024709;28;20100;-53
2020/12/10 12:37:16;;;;;;;24.25;9.35;;;8.90;88.00;;;;;;5019624;28;20026;-53
2020/12/10 12:39:41;;;;;;;20.30;8.15;;;9.00;88.10;;;;;;5024905;28;20025;-53
2020/12/10 12:42:08;;;;;;;28.15;9.13;;;8.90;87.90;;;;;;5024144;28;20080;-53
2020/12/10 12:44:34;;;;;;;30.65;9.82;;;8.90;87.90;;;;;;5022128;28;20033;-53
2020/12/10 12:47:00;;;;;;;27.70;10.55;;;9.00;88.10;;;;;;5034515;28;20096;-52
2020/12/10 12:49:26;;;;;;;31.13;11.00;;;8.90;88.00;;;;;;5025649;28;20120;-53